createdAt,value
2019-03-21T00:00:10.911Z,8.32
2019-03-21T00:00:51.252Z,8.29
2019-03-21T00:01:31.698Z,8.24
2019-03-21T00:02:12.108Z,8.27
2019-03-21T00:02:52.487Z,8.31
2019-03-21T00:03:32.943Z,8.17
2019-03-21T00:04:13.445Z,8.18
2019-03-21T00:04:53.825Z,8.24
2019-03-21T00:05:34.300Z,8.28
2019-03-21T00:06:14.691Z,8.28
2019-03-21T00:06:54.999Z,8.18
2019-03-21T00:07:35.443Z,8.17
2019-03-21T00:08:15.806Z,8.14
2019-03-21T00:08:56.212Z,8.14
2019-03-21T00:09:36.583Z,8.07
2019-03-21T00:10:17.001Z,8.02
2019-03-21T00:10:57.362Z,7.99
2019-03-21T00:11:37.772Z,7.99
2019-03-21T00:12:18.153Z,7.92
2019-03-21T00:12:58.529Z,7.94
2019-03-21T00:13:39.042Z,7.92
2019-03-21T00:14:19.427Z,7.94
2019-03-21T00:14:59.812Z,7.94
2019-03-21T00:15:40.116Z,7.91
2019-03-21T00:16:20.559Z,8
2019-03-21T00:17:01.030Z,8.09
2019-03-21T00:17:41.434Z,8.07
2019-03-21T00:18:21.766Z,8.12
2019-03-21T00:19:02.180Z,8.14
2019-03-21T00:19:42.584Z,8.17
2019-03-21T00:20:22.922Z,8.13
2019-03-21T00:21:03.428Z,8.07
2019-03-21T00:21:43.891Z,8.04
2019-03-21T00:22:24.264Z,8.04
2019-03-21T00:23:04.681Z,8.09
2019-03-21T00:23:45.035Z,7.89
2019-03-21T00:24:25.482Z,7.91
2019-03-21T00:25:05.906Z,8.02
2019-03-21T00:25:46.274Z,7.85
2019-03-21T00:26:26.669Z,7.89
2019-03-21T00:27:07.007Z,7.82
2019-03-21T00:27:47.533Z,7.91
2019-03-21T00:28:27.927Z,7.76
2019-03-21T00:29:08.330Z,7.76
2019-03-21T00:29:48.758Z,7.71
2019-03-21T00:30:29.061Z,7.73
2019-03-21T00:31:09.451Z,7.81
2019-03-21T00:31:49.866Z,7.84
2019-03-21T00:32:30.330Z,7.74
2019-03-21T00:33:10.688Z,7.73
2019-03-21T00:33:51.113Z,7.67
2019-03-21T00:34:31.527Z,7.66
2019-03-21T00:35:11.898Z,7.7
2019-03-21T00:35:52.251Z,7.6
2019-03-21T00:36:32.702Z,7.58
2019-03-21T00:37:13.112Z,7.6
2019-03-21T00:37:53.504Z,7.6
2019-03-21T00:38:33.892Z,7.66
2019-03-21T00:39:14.265Z,7.66
2019-03-21T00:39:54.667Z,7.67
2019-03-21T00:40:35.129Z,7.69
2019-03-21T00:41:15.481Z,7.69
2019-03-21T00:41:55.902Z,7.76
2019-03-21T00:42:36.321Z,7.69
2019-03-21T00:43:16.686Z,7.76
2019-03-21T00:43:57.148Z,7.67
2019-03-21T00:44:37.564Z,7.71
2019-03-21T00:45:17.931Z,7.66
2019-03-21T00:45:58.281Z,7.69
2019-03-21T00:46:38.688Z,7.69
2019-03-21T00:47:19.088Z,7.7
2019-03-21T00:47:59.499Z,7.7
2019-03-21T00:48:39.867Z,7.67
2019-03-21T00:49:20.258Z,7.7
2019-03-21T00:50:00.717Z,7.58
2019-03-21T00:50:41.096Z,7.58
2019-03-21T00:51:21.464Z,7.66
2019-03-21T00:52:01.874Z,7.62
2019-03-21T00:52:42.327Z,7.63
2019-03-21T00:53:22.661Z,7.69
2019-03-21T00:54:03.142Z,7.7
2019-03-21T00:54:43.449Z,7.69
2019-03-21T00:55:23.882Z,7.67
2019-03-21T00:56:04.297Z,7.71
2019-03-21T00:56:44.775Z,7.76
2019-03-21T00:57:25.142Z,7.7
2019-03-21T00:58:05.441Z,7.73
2019-03-21T00:58:45.903Z,7.74
2019-03-21T00:59:26.331Z,7.69
2019-03-21T01:00:06.672Z,7.74
2019-03-21T01:00:47.131Z,7.74
2019-03-21T01:01:27.531Z,7.7
2019-03-21T01:02:07.873Z,7.74
2019-03-21T01:02:48.264Z,7.79
2019-03-21T01:03:28.721Z,7.74
2019-03-21T01:04:09.110Z,7.77
2019-03-21T01:04:49.523Z,7.66
2019-03-21T01:05:29.816Z,7.71
2019-03-21T01:06:10.206Z,7.76
2019-03-21T01:06:50.644Z,7.76
2019-03-21T01:07:31.080Z,7.79
2019-03-21T01:08:11.513Z,7.82
2019-03-21T01:08:51.874Z,7.77
2019-03-21T01:09:32.335Z,7.82
2019-03-21T01:10:12.708Z,7.81
2019-03-21T01:10:53.106Z,7.77
2019-03-21T01:11:33.560Z,7.73
2019-03-21T01:12:13.943Z,7.74
2019-03-21T01:12:54.250Z,7.82
2019-03-21T01:13:34.657Z,7.77
2019-03-21T01:14:15.107Z,7.82
2019-03-21T01:14:55.443Z,7.82
2019-03-21T01:15:35.907Z,7.69
2019-03-21T01:16:16.325Z,7.73
2019-03-21T01:16:56.657Z,7.7
2019-03-21T01:17:37.092Z,7.73
2019-03-21T01:18:17.485Z,7.76
2019-03-21T01:18:57.883Z,7.79
2019-03-21T01:19:38.295Z,7.84
2019-03-21T01:20:18.662Z,7.84
2019-03-21T01:20:59.059Z,7.81
2019-03-21T01:21:39.529Z,7.73
2019-03-21T01:22:19.924Z,7.74
2019-03-21T01:23:00.260Z,7.76
2019-03-21T01:23:40.736Z,7.76
2019-03-21T01:24:21.115Z,7.74
2019-03-21T01:25:01.528Z,7.84
2019-03-21T01:25:41.864Z,7.79
2019-03-21T01:26:22.309Z,7.73
2019-03-21T01:27:02.676Z,7.69
2019-03-21T01:27:43.038Z,7.74
2019-03-21T01:28:23.490Z,7.77
2019-03-21T01:29:03.903Z,7.7
2019-03-21T01:29:44.312Z,7.82
2019-03-21T01:30:24.730Z,7.74
2019-03-21T01:31:05.099Z,7.74
2019-03-21T01:31:45.516Z,7.76
2019-03-21T01:32:25.895Z,7.77
2019-03-21T01:33:06.251Z,7.67
2019-03-21T01:33:46.627Z,7.74
2019-03-21T01:34:27.130Z,7.62
2019-03-21T01:35:07.474Z,7.66
2019-03-21T01:35:47.912Z,7.67
2019-03-21T01:36:28.287Z,7.63
2019-03-21T01:37:08.748Z,7.58
2019-03-21T01:37:49.167Z,7.48
2019-03-21T01:38:29.539Z,7.57
2019-03-21T01:39:09.970Z,7.63
2019-03-21T01:39:50.417Z,7.58
2019-03-21T01:40:30.766Z,7.5
2019-03-21T01:41:11.152Z,7.6
2019-03-21T01:41:51.598Z,7.55
2019-03-21T01:42:31.982Z,7.51
2019-03-21T01:43:12.419Z,7.57
2019-03-21T01:43:52.820Z,7.55
2019-03-21T01:44:40.803Z,7.58
2019-03-21T01:45:13.587Z,7.57
2019-03-21T01:45:54.036Z,7.47
2019-03-21T01:46:34.405Z,7.48
2019-03-21T01:47:14.776Z,7.47
2019-03-21T01:47:55.191Z,7.5
2019-03-21T01:48:35.603Z,7.55
2019-03-21T01:49:15.967Z,7.57
2019-03-21T01:49:56.345Z,7.57
2019-03-21T01:50:36.785Z,7.6
2019-03-21T01:51:17.121Z,7.58
2019-03-21T01:51:57.528Z,7.6
2019-03-21T01:52:37.945Z,7.57
2019-03-21T01:53:18.289Z,7.52
2019-03-21T01:53:58.674Z,7.48
2019-03-21T01:54:39.117Z,7.57
2019-03-21T01:55:19.582Z,7.58
2019-03-21T01:55:59.991Z,7.52
2019-03-21T01:56:40.391Z,7.45
2019-03-21T01:57:20.788Z,7.54
2019-03-21T01:58:01.184Z,7.45
2019-03-21T01:58:41.550Z,7.44
2019-03-21T01:59:22.087Z,7.34
2019-03-21T02:00:02.442Z,7.36
2019-03-21T02:00:43.001Z,7.41
2019-03-21T02:01:23.254Z,7.33
2019-03-21T02:02:03.774Z,7.32
2019-03-21T02:02:44.156Z,7.3
2019-03-21T02:03:24.553Z,7.32
2019-03-21T02:04:04.935Z,7.34
2019-03-21T02:04:45.343Z,7.33
2019-03-21T02:05:25.707Z,7.42
2019-03-21T02:06:06.076Z,7.36
2019-03-21T02:06:46.541Z,7.33
2019-03-21T02:07:27.030Z,7.57
2019-03-21T02:08:07.412Z,7.57
2019-03-21T02:08:47.854Z,7.57
2019-03-21T02:09:28.263Z,7.48
2019-03-21T02:10:08.686Z,7.47
2019-03-21T02:10:49.098Z,7.47
2019-03-21T02:11:29.546Z,7.45
2019-03-21T02:12:09.943Z,7.34
2019-03-21T02:12:50.425Z,7.33
2019-03-21T02:13:30.818Z,7.48
2019-03-21T02:14:11.232Z,7.54
2019-03-21T02:14:52.474Z,7.62
2019-03-21T02:15:32.009Z,7.58
2019-03-21T02:16:12.411Z,7.66
2019-03-21T02:16:52.801Z,7.67
2019-03-21T02:17:33.239Z,7.77
2019-03-21T02:18:13.613Z,7.6
2019-03-21T02:18:53.989Z,7.73
2019-03-21T02:19:34.375Z,7.73
2019-03-21T02:20:14.808Z,7.76
2019-03-21T02:20:55.231Z,7.73
2019-03-21T02:21:35.637Z,7.69
2019-03-21T02:22:16.057Z,7.76
2019-03-21T02:22:56.420Z,7.76
2019-03-21T02:23:36.859Z,7.63
2019-03-21T02:24:17.219Z,7.67
2019-03-21T02:24:57.676Z,7.63
2019-03-21T02:25:38.014Z,7.67
2019-03-21T02:26:18.418Z,7.71
2019-03-21T02:26:58.788Z,7.62
2019-03-21T02:27:39.217Z,7.6
2019-03-21T02:28:19.587Z,7.62
2019-03-21T02:29:00.041Z,7.44
2019-03-21T02:29:40.475Z,7.5
2019-03-21T02:30:20.838Z,7.45
2019-03-21T02:31:01.218Z,7.45
2019-03-21T02:31:41.671Z,7.47
2019-03-21T02:32:22.046Z,7.45
2019-03-21T02:33:02.484Z,7.5
2019-03-21T02:33:42.895Z,7.47
2019-03-21T02:34:23.219Z,7.51
2019-03-21T02:35:03.683Z,7.55
2019-03-21T02:35:44.081Z,7.47
2019-03-21T02:36:24.491Z,7.6
2019-03-21T02:37:04.828Z,7.55
2019-03-21T02:37:45.298Z,7.55
2019-03-21T02:38:25.681Z,7.52
2019-03-21T02:39:06.046Z,7.48
2019-03-21T02:39:58.460Z,7.48
2019-03-21T02:40:26.887Z,7.51
2019-03-21T02:41:07.333Z,7.34
2019-03-21T02:41:47.712Z,7.47
2019-03-21T02:42:28.122Z,7.42
2019-03-21T02:43:08.524Z,7.34
2019-03-21T02:43:48.912Z,7.36
2019-03-21T02:44:29.326Z,7.36
2019-03-21T02:45:09.870Z,7.3
2019-03-21T02:45:50.116Z,7.36
2019-03-21T02:46:30.528Z,7.32
2019-03-21T02:47:10.985Z,7.33
2019-03-21T02:47:51.387Z,7.3
2019-03-21T02:48:31.791Z,7.21
2019-03-21T02:49:12.184Z,7.16
2019-03-21T02:49:52.588Z,7.14
2019-03-21T02:50:32.951Z,7.29
2019-03-21T02:51:13.368Z,7.24
2019-03-21T02:51:53.704Z,7.26
2019-03-21T02:52:34.206Z,7.27
2019-03-21T02:53:14.615Z,7.26
2019-03-21T02:53:55.033Z,7.26
2019-03-21T02:54:35.506Z,7.26
2019-03-21T02:55:15.908Z,7.23
2019-03-21T02:55:56.289Z,7.27
2019-03-21T02:56:36.651Z,7.21
2019-03-21T02:57:17.129Z,7.27
2019-03-21T02:57:57.482Z,7.24
2019-03-21T02:58:37.939Z,7.24
2019-03-21T02:59:18.364Z,7.26
2019-03-21T02:59:58.748Z,7.34
2019-03-21T03:00:39.196Z,7.3
2019-03-21T03:01:19.502Z,7.32
2019-03-21T03:01:59.961Z,7.26
2019-03-21T03:02:40.375Z,7.24
2019-03-21T03:03:20.716Z,7.18
2019-03-21T03:04:01.314Z,7.21
2019-03-21T03:04:41.640Z,7.21
2019-03-21T03:05:22.200Z,7.14
2019-03-21T03:06:02.641Z,7.16
2019-03-21T03:06:43.082Z,7.19
2019-03-21T03:07:23.490Z,7.18
2019-03-21T03:08:03.938Z,7.26
2019-03-21T03:08:44.329Z,7.19
2019-03-21T03:09:24.737Z,7.36
2019-03-21T03:10:05.083Z,7.34
2019-03-21T03:10:45.550Z,7.37
2019-03-21T03:11:25.875Z,7.42
2019-03-21T03:12:06.326Z,7.5
2019-03-21T03:12:46.719Z,7.45
2019-03-21T03:13:27.101Z,7.58
2019-03-21T03:14:07.544Z,7.54
2019-03-21T03:14:47.987Z,7.58
2019-03-21T03:15:28.317Z,7.51
2019-03-21T03:16:08.780Z,7.48
2019-03-21T03:16:49.079Z,7.5
2019-03-21T03:17:29.461Z,7.45
2019-03-21T03:18:09.853Z,7.37
2019-03-21T03:18:50.274Z,7.37
2019-03-21T03:19:30.698Z,7.34
2019-03-21T03:20:11.055Z,7.34
2019-03-21T03:20:51.455Z,7.27
2019-03-21T03:21:31.829Z,7.23
2019-03-21T03:22:12.263Z,7.27
2019-03-21T03:22:52.598Z,7.27
2019-03-21T03:23:33.026Z,7.21
2019-03-21T03:24:13.353Z,7.24
2019-03-21T03:24:53.740Z,7.19
2019-03-21T03:25:34.215Z,7.29
2019-03-21T03:26:14.627Z,7.32
2019-03-21T03:26:55.001Z,7.26
2019-03-21T03:27:35.414Z,7.21
2019-03-21T03:28:15.792Z,7.29
2019-03-21T03:28:56.360Z,7.32
2019-03-21T03:29:36.793Z,7.32
2019-03-21T03:30:17.182Z,7.29
2019-03-21T03:30:57.620Z,7.16
2019-03-21T03:31:37.959Z,7.18
2019-03-21T03:32:18.371Z,7.16
2019-03-21T03:32:58.839Z,7.24
2019-03-21T03:33:39.197Z,7.24
2019-03-21T03:34:19.571Z,7.34
2019-03-21T03:34:59.947Z,7.48
2019-03-21T03:37:03.272Z,7.58
2019-03-21T03:37:56.447Z,7.57
2019-03-21T03:38:48.349Z,7.45
2019-03-21T03:39:41.362Z,7.26
2019-03-21T03:40:34.063Z,7.32
2019-03-21T03:41:26.567Z,7.3
2019-03-21T03:42:19.222Z,7.33
2019-03-21T03:43:11.930Z,7.24
2019-03-21T03:44:09.195Z,7.24
2019-03-21T03:45:01.297Z,7.19
2019-03-21T03:45:55.983Z,7.18
2019-03-21T03:46:51.122Z,7.16
2019-03-21T03:47:45.388Z,7.21
2019-03-21T03:48:38.082Z,7.16
2019-03-21T03:49:31.912Z,7.09
2019-03-21T03:50:25.045Z,7.14
2019-03-21T03:51:19.676Z,7
2019-03-21T03:52:12.648Z,6.96
2019-03-21T03:53:06.421Z,6.89
2019-03-21T03:54:02.466Z,6.83
2019-03-21T03:54:56.861Z,6.87
2019-03-21T03:55:50.904Z,6.83
2019-03-21T03:56:45.581Z,6.79
2019-03-21T03:57:37.975Z,6.83
2019-03-21T03:58:31.660Z,6.87
2019-03-21T03:59:26.513Z,6.86
2019-03-21T04:00:19.484Z,6.93
2019-03-21T04:01:14.681Z,6.99
2019-03-21T04:02:08.130Z,6.93
2019-03-21T04:03:02.968Z,7.01
2019-03-21T04:03:56.469Z,7.09
2019-03-21T04:04:49.916Z,7.12
2019-03-21T04:05:44.073Z,7.11
2019-03-21T04:06:37.123Z,7.16
2019-03-21T04:07:29.659Z,7.14
2019-03-21T04:08:23.670Z,7.19
2019-03-21T04:09:15.999Z,7.29
2019-03-21T04:10:09.213Z,7.32
2019-03-21T04:11:02.064Z,7.29
2019-03-21T04:11:54.949Z,7.21
2019-03-21T04:12:48.207Z,7.21
2019-03-21T04:13:40.892Z,7.14
2019-03-21T04:14:34.192Z,7.16
2019-03-21T04:15:27.652Z,7.15
2019-03-21T04:16:21.453Z,7.11
2019-03-21T04:17:14.594Z,7.12
2019-03-21T04:18:06.796Z,7.14
2019-03-21T04:19:00.633Z,7.14
2019-03-21T04:19:54.622Z,7.19
2019-03-21T04:20:47.143Z,7.3
2019-03-21T04:21:39.347Z,7.21
2019-03-21T04:22:32.159Z,7.27
2019-03-21T04:23:25.254Z,7.34
2019-03-21T04:24:18.049Z,7.26
2019-03-21T04:25:10.629Z,7.32
2019-03-21T04:26:03.682Z,7.29
2019-03-21T04:26:57.330Z,7.26
2019-03-21T04:27:50.829Z,7.15
2019-03-21T04:28:43.907Z,7.08
2019-03-21T05:05:54.472Z,5.85
2019-03-21T05:06:50.149Z,5.83
2019-03-21T05:07:48.498Z,5.78
2019-03-21T05:08:48.453Z,5.77
2019-03-21T05:09:48.503Z,5.73
2019-03-21T05:10:47.730Z,5.67
2019-03-21T05:15:07.734Z,5.78
2019-03-21T05:16:14.233Z,5.74
2019-03-21T05:17:01.351Z,5.77
2019-03-21T05:17:59.376Z,5.7
2019-03-21T05:19:04.704Z,5.77
2019-03-21T05:20:00.326Z,5.87
2019-03-21T05:20:55.757Z,5.95
2019-03-21T05:21:51.458Z,6.05
2019-03-21T05:22:49.238Z,6.02
2019-03-21T05:23:47.895Z,5.96
2019-03-21T05:24:49.837Z,6.16
2019-03-21T05:25:51.488Z,6.19
2019-03-21T05:26:54.011Z,6.25
2019-03-21T05:27:58.305Z,6.27
2019-03-21T05:29:00.424Z,6.35
2019-03-21T05:30:07.185Z,6.39
2019-03-21T05:31:12.199Z,6.33
2019-03-21T05:32:09.629Z,6.4
2019-03-21T05:33:08.070Z,6.42
2019-03-21T05:34:09.607Z,6.43
2019-03-21T05:35:10.816Z,6.39
2019-03-21T05:36:15.019Z,6.36
2019-03-21T05:37:14.398Z,6.38
2019-03-21T05:38:23.747Z,6.39
2019-03-21T05:39:26.613Z,6.32
2019-03-21T05:40:26.718Z,6.33
2019-03-21T05:41:21.339Z,6.42
2019-03-21T05:42:15.655Z,6.33
2019-03-21T05:43:11.267Z,6.33
2019-03-21T05:44:06.289Z,6.46
2019-03-21T05:45:03.769Z,6.45
2019-03-21T05:46:01.184Z,6.55
2019-03-21T05:47:00.585Z,6.53
2019-03-21T05:48:00.213Z,6.53
2019-03-21T05:48:57.324Z,6.68
2019-03-21T05:49:55.139Z,6.73
2019-03-21T05:50:53.550Z,6.63
2019-03-21T05:51:51.982Z,6.69
2019-03-21T05:52:48.062Z,6.64
2019-03-21T05:53:47.591Z,6.71
2019-03-21T05:54:47.034Z,6.81
2019-03-21T05:55:45.739Z,6.83
2019-03-21T05:56:41.283Z,6.87
2019-03-21T05:57:36.445Z,6.91
2019-03-21T05:58:29.932Z,7.05
2019-03-21T05:59:24.710Z,7.05
2019-03-21T06:00:21.800Z,7.05
2019-03-21T06:02:17.112Z,7.05
2019-03-21T06:03:14.892Z,7.07
2019-03-21T06:04:10.610Z,7.04
2019-03-21T06:05:07.821Z,7.09
2019-03-21T06:06:05.510Z,7.15
2019-03-21T06:07:00.619Z,7.21
2019-03-21T06:07:59.141Z,7.21
2019-03-21T06:08:53.801Z,7.34
2019-03-21T06:12:05.587Z,7.54
2019-03-21T06:13:08.827Z,7.81
2019-03-21T06:14:07.530Z,7.95
2019-03-21T06:15:05.820Z,8.1
2019-03-21T06:16:23.083Z,8.24
2019-03-21T06:17:31.840Z,8.31
2019-03-21T06:18:33.664Z,8.45
2019-03-21T06:19:30.289Z,8.54
2019-03-21T06:20:32.403Z,8.68
2019-03-21T06:21:29.519Z,8.83
2019-03-21T06:22:27.656Z,8.96
2019-03-21T06:23:25.195Z,9.17
2019-03-21T06:24:21.137Z,9.35
2019-03-21T06:25:21.338Z,9.58
2019-03-21T06:26:21.629Z,9.68
2019-03-21T06:28:04.747Z,9.99
2019-03-21T06:30:07.618Z,10.26
2019-03-21T06:30:47.591Z,10.49
2019-03-21T06:31:27.993Z,10.55
2019-03-21T06:32:08.503Z,10.57
2019-03-21T06:32:48.895Z,10.63
2019-03-21T06:33:29.460Z,10.58
2019-03-21T06:34:09.901Z,10.7
2019-03-21T06:34:50.327Z,10.75
2019-03-21T06:35:30.759Z,10.72
2019-03-21T06:36:11.145Z,10.84
2019-03-21T06:36:51.597Z,10.81
2019-03-21T06:37:31.946Z,10.83
2019-03-21T06:38:12.362Z,10.81
2019-03-21T06:38:52.812Z,10.94
2019-03-21T06:39:33.323Z,10.9
2019-03-21T06:40:13.635Z,10.94
2019-03-21T06:40:56.371Z,10.98
2019-03-21T06:41:36.834Z,11.13
2019-03-21T06:42:17.322Z,11.06
2019-03-21T06:42:57.700Z,11.13
2019-03-21T06:43:38.136Z,11.26
2019-03-21T06:46:35.490Z,11.64
2019-03-21T06:47:18.328Z,11.7
2019-03-21T06:47:58.989Z,11.7
2019-03-21T06:48:39.476Z,11.74
2019-03-21T06:49:20.004Z,11.88
2019-03-21T06:50:00.507Z,11.96
2019-03-21T06:50:45.964Z,11.87
2019-03-21T06:51:26.619Z,11.9
2019-03-21T06:52:08.881Z,11.97
2019-03-21T06:52:50.507Z,12.03
2019-03-21T06:53:33.716Z,12.13
2019-03-21T06:54:14.399Z,12.07
2019-03-21T06:57:44.902Z,12.04
2019-03-21T06:58:27.508Z,12.12
2019-03-21T06:59:09.780Z,12.11
2019-03-21T06:59:50.147Z,12.11
2019-03-21T07:02:08.558Z,12
2019-03-21T07:03:08.439Z,11.98
2019-03-21T07:04:06.790Z,11.97
2019-03-21T07:04:59.481Z,11.98
2019-03-21T07:06:05.372Z,12.16
2019-03-21T07:09:59.346Z,12.25
2019-03-21T07:10:40.374Z,12.36
2019-03-21T07:11:20.874Z,12.37
2019-03-21T07:12:01.395Z,12.44
2019-03-21T07:12:41.888Z,12.41
2019-03-21T07:13:22.378Z,12.56
2019-03-21T07:14:03.666Z,12.67
2019-03-21T07:14:44.577Z,12.84
2019-03-21T07:15:26.371Z,12.95
2019-03-21T07:16:09.225Z,13.04
2019-03-21T07:16:48.027Z,13.14
2019-03-21T07:17:29.439Z,13.17
2019-03-21T07:18:09.719Z,13.27
2019-03-21T07:18:50.622Z,13.31
2019-03-21T07:19:31.089Z,13.25
2019-03-21T07:20:11.861Z,13.31
2019-03-21T07:20:53.165Z,13.25
2019-03-21T07:21:33.578Z,13.27
2019-03-21T07:22:14.077Z,13.29
2019-03-21T07:22:54.542Z,13.13
2019-03-21T07:23:36.571Z,13.16
2019-03-21T07:24:17.922Z,13.03
2019-03-21T07:24:58.904Z,13.03
2019-03-21T07:25:38.921Z,13.06
2019-03-21T07:26:20.522Z,13.12
2019-03-21T07:27:02.630Z,13.09
2019-03-21T07:27:43.421Z,13.27
2019-03-21T07:28:23.457Z,13.17
2019-03-21T07:29:05.162Z,13.27
2019-03-21T07:34:45.281Z,13.94
2019-03-21T07:39:10.648Z,14.36
2019-03-21T07:40:10.750Z,14.49
2019-03-21T07:41:11.846Z,14.59
2019-03-21T07:42:26.028Z,14.71
2019-03-21T07:44:31.445Z,14.61
2019-03-21T07:45:36.394Z,14.56
2019-03-21T07:46:43.962Z,14.36
2019-03-21T07:47:45.591Z,14.44
2019-03-21T07:53:11.678Z,14.57
2019-03-21T07:53:52.187Z,14.66
2019-03-21T07:54:32.816Z,14.63
2019-03-21T07:55:13.335Z,14.6
2019-03-21T07:55:54.734Z,14.61
2019-03-21T07:56:36.137Z,14.61
2019-03-21T07:57:18.506Z,14.78
2019-03-21T07:57:59.597Z,14.83
2019-03-21T07:58:41.452Z,14.93
2019-03-21T07:59:21.999Z,15.01
2019-03-21T08:00:02.479Z,15.13
2019-03-21T08:00:43.519Z,15.04
2019-03-21T08:01:26.825Z,14.98
2019-03-21T08:02:15.765Z,14.97
2019-03-21T08:03:00.087Z,14.85
2019-03-21T08:05:57.683Z,14.72
2019-03-21T08:06:38.579Z,14.72
2019-03-21T08:09:04.972Z,14.98
2019-03-21T08:12:04.189Z,15.44
2019-03-21T08:15:15.852Z,15.88
2019-03-21T08:15:56.304Z,15.86
2019-03-21T08:16:36.767Z,15.91
2019-03-21T08:17:21.007Z,15.92
2019-03-21T08:18:02.395Z,16.06
2019-03-21T08:18:42.908Z,16.26
2019-03-21T08:19:23.367Z,16.26
2019-03-21T08:25:01.605Z,17.36
2019-03-21T08:25:49.480Z,17.6
2019-03-21T08:26:30.066Z,17.76
2019-03-21T08:27:10.509Z,17.81
2019-03-21T08:27:51.860Z,17.83
2019-03-21T08:28:31.646Z,17.86
2019-03-21T08:29:12.978Z,17.96
2019-03-21T08:29:53.449Z,18.01
2019-03-21T08:30:33.850Z,17.96
2019-03-21T08:31:14.317Z,18.16
2019-03-21T08:31:54.759Z,18.07
2019-03-21T08:32:36.925Z,18.14
2019-03-21T08:35:56.729Z,17.79
2019-03-21T08:36:38.770Z,17.81
2019-03-21T08:37:20.145Z,17.74
2019-03-21T08:38:01.132Z,17.74
2019-03-21T08:38:43.504Z,17.71
2019-03-21T08:39:24.049Z,17.65
2019-03-21T08:40:04.470Z,17.77
2019-03-21T08:40:44.887Z,17.92
2019-03-21T08:41:25.373Z,17.95
2019-03-21T08:42:06.852Z,18.19
2019-03-21T08:42:47.353Z,18.29
2019-03-21T08:43:30.528Z,18.26
2019-03-21T08:44:11.156Z,18.25
2019-03-21T08:44:51.775Z,18.2
2019-03-21T08:45:32.404Z,18.13
2019-03-21T08:46:12.825Z,18.28
2019-03-21T08:46:53.654Z,18.28
2019-03-21T08:47:34.018Z,18.38
2019-03-21T08:48:14.534Z,18.41
2019-03-21T08:48:56.538Z,18.42
2019-03-21T08:49:36.911Z,18.56
2019-03-21T08:50:17.387Z,18.72
2019-03-21T08:51:07.551Z,18.84
2019-03-21T08:51:39.987Z,18.83
2019-03-21T08:52:22.277Z,18.82
2019-03-21T08:53:04.534Z,18.89
2019-03-21T08:53:54.981Z,18.49
2019-03-21T08:54:37.110Z,18.39
2019-03-21T08:55:20.427Z,18.28
2019-03-21T08:58:18.677Z,18.39
2019-03-21T08:59:27.149Z,18.57
2019-03-21T09:06:10.565Z,18.62
2019-03-21T09:08:48.933Z,18.87
2019-03-21T09:09:49.117Z,19.07
2019-03-21T09:11:28.390Z,19.2
2019-03-21T09:12:07.321Z,19.28
2019-03-21T09:12:47.823Z,19.38
2019-03-21T09:13:28.402Z,19.58
2019-03-21T09:14:08.891Z,19.7
2019-03-21T09:14:49.357Z,19.9
2019-03-21T09:15:29.724Z,20.07
2019-03-21T09:16:11.859Z,20.13
2019-03-21T09:16:51.286Z,20.26
2019-03-21T09:17:31.817Z,20.26
2019-03-21T09:18:12.264Z,20.46
2019-03-21T09:18:52.738Z,20.5
2019-03-21T09:19:33.530Z,20.71
2019-03-21T09:20:13.924Z,20.88
2019-03-21T09:20:54.477Z,21.01
2019-03-21T09:21:36.017Z,21.01
2019-03-21T09:22:16.356Z,21.19
2019-03-21T09:26:02.617Z,21.89
2019-03-21T09:27:00.853Z,21.86
2019-03-21T09:28:51.881Z,21.93
2019-03-21T09:29:53.613Z,22.04
2019-03-21T09:33:01.323Z,22.54
2019-03-21T09:33:43.025Z,22.66
2019-03-21T09:34:23.571Z,22.76
2019-03-21T09:35:04.532Z,22.96
2019-03-21T09:35:45.204Z,22.99
2019-03-21T09:36:25.819Z,23.12
2019-03-21T09:37:06.299Z,23.12
2019-03-21T09:37:46.962Z,23.01
2019-03-21T09:38:28.562Z,23.14
2019-03-21T09:39:08.836Z,23.19
2019-03-21T09:39:49.791Z,23.19
2019-03-21T09:40:30.512Z,23.31
2019-03-21T09:41:11.468Z,23.21
2019-03-21T09:41:52.096Z,23.15
2019-03-21T09:42:33.992Z,23.15
2019-03-21T09:43:14.271Z,23.18
2019-03-21T09:43:54.746Z,23.06
2019-03-21T09:44:35.140Z,23.06
2019-03-21T09:45:15.682Z,23.04
2019-03-21T09:45:56.131Z,23.06
2019-03-21T09:47:32.141Z,22.82
2019-03-21T09:48:13.282Z,22.93
2019-03-21T09:48:53.315Z,23.03
2019-03-21T09:49:34.799Z,23.15
2019-03-21T09:50:15.161Z,23.34
2019-03-21T09:50:57.933Z,23.31
2019-03-21T09:51:38.449Z,23.37
2019-03-21T09:52:18.902Z,23.35
2019-03-21T09:52:59.466Z,23.38
2019-03-21T09:53:39.966Z,23.44
2019-03-21T09:54:20.424Z,23.54
2019-03-21T09:55:00.975Z,23.59
2019-03-21T09:55:45.239Z,23.57
2019-03-21T09:56:28.445Z,23.41
2019-03-21T09:57:09.063Z,23.41
2019-03-21T09:57:49.424Z,23.37
2019-03-21T09:58:30.357Z,23.38
2019-03-21T09:59:10.828Z,23.32
2019-03-21T09:59:51.232Z,23.38
2019-03-21T10:00:31.803Z,23.54
2019-03-21T10:01:12.304Z,23.57
2019-03-21T10:01:54.434Z,23.67
2019-03-21T10:02:33.387Z,23.79
2019-03-21T10:03:13.827Z,23.92
2019-03-21T10:03:54.259Z,24.14
2019-03-21T10:04:34.693Z,24.05
2019-03-21T10:05:15.104Z,24
2019-03-21T10:05:55.522Z,23.93
2019-03-21T10:06:35.974Z,23.79
2019-03-21T10:07:17.183Z,24.02
2019-03-21T10:07:59.417Z,24.19
2019-03-21T10:08:37.561Z,24.16
2019-03-21T10:09:17.941Z,24.15
2019-03-21T10:09:58.544Z,24.27
2019-03-21T10:10:39.680Z,24.36
2019-03-21T10:11:20.659Z,24.44
2019-03-21T10:12:00.697Z,24.56
2019-03-21T10:12:41.173Z,24.68
2019-03-21T10:13:21.794Z,24.8
2019-03-21T10:14:02.238Z,24.79
2019-03-21T10:16:20.244Z,24.18
2019-03-21T10:17:23.262Z,24.23
2019-03-21T10:19:11.026Z,23.68
2019-03-21T10:20:46.102Z,23.59
2019-03-21T10:21:43.452Z,23.63
2019-03-21T10:22:40.778Z,23.56
2019-03-21T10:23:34.717Z,23.59
2019-03-21T10:24:30.823Z,23.6
2019-03-21T10:25:27.222Z,23.63
2019-03-21T10:26:23.096Z,23.79
2019-03-21T10:27:20.324Z,23.97
2019-03-21T10:28:19.472Z,24.11
2019-03-21T10:29:17.764Z,24.44
2019-03-21T11:06:44.513Z,23.71
2019-03-21T11:07:25.713Z,23.64
2019-03-21T11:08:06.187Z,23.54
2019-03-21T11:08:46.632Z,23.44
2019-03-21T11:09:27.030Z,23.34
2019-03-21T11:10:07.438Z,23.19
2019-03-21T11:10:47.781Z,23.37
2019-03-21T11:11:28.411Z,23.44
2019-03-21T11:12:08.626Z,23.71
2019-03-21T11:12:49.052Z,23.63
2019-03-21T11:13:29.559Z,23.47
2019-03-21T11:14:09.911Z,23.42
2019-03-21T11:14:50.456Z,23.59
2019-03-21T11:15:30.743Z,23.59
2019-03-21T11:16:12.990Z,23.63
2019-03-21T11:16:53.441Z,23.78
2019-03-21T11:17:33.768Z,23.94
2019-03-21T11:18:14.139Z,24.16
2019-03-21T11:18:54.607Z,24.26
2019-03-21T11:19:35.020Z,24.3
2019-03-21T11:20:15.568Z,23.96
2019-03-21T11:20:55.920Z,23.82
2019-03-21T11:21:36.337Z,23.72
2019-03-21T11:22:16.776Z,23.64
2019-03-21T11:25:39.008Z,23.96
2019-03-21T11:26:34.165Z,24.19
2019-03-21T11:27:27.291Z,24.39
2019-03-21T11:28:22.455Z,24.61
2019-03-21T11:30:16.181Z,25.39
2019-03-21T11:30:54.139Z,25.6
2019-03-21T11:31:38.359Z,25.67
2019-03-21T11:32:18.799Z,25.59
2019-03-21T11:33:01.001Z,25.36
2019-03-21T11:33:42.228Z,25.29
2019-03-21T11:34:22.749Z,25.17
2019-03-21T11:35:04.238Z,25.01
2019-03-21T11:35:44.642Z,24.97
2019-03-21T11:36:25.033Z,24.97
2019-03-21T11:37:05.413Z,25.01
2019-03-21T11:37:45.869Z,25.07
2019-03-21T11:38:26.321Z,25.3
2019-03-21T11:39:06.739Z,25.48
2019-03-21T11:39:47.102Z,25.69
2019-03-21T11:40:27.519Z,25.91
2019-03-21T11:41:07.915Z,26.21
2019-03-21T11:41:48.342Z,26.36
2019-03-21T11:42:28.815Z,26.47
2019-03-21T11:43:09.197Z,26.68
2019-03-21T11:43:49.653Z,26.72
2019-03-21T11:44:30.066Z,26.72
2019-03-21T11:45:10.688Z,26.9
2019-03-21T11:46:52.980Z,27.24
2019-03-21T11:47:41.569Z,27.43
2019-03-21T11:48:14.793Z,27.33
2019-03-21T11:48:56.631Z,26.91
2019-03-21T11:49:37.056Z,26.64
2019-03-21T11:50:19.029Z,26.69
2019-03-21T11:50:59.438Z,26.73
2019-03-21T11:51:39.872Z,26.75
2019-03-21T11:52:20.245Z,26.71
2019-03-21T11:53:00.687Z,26.59
2019-03-21T11:53:41.057Z,26.47
2019-03-21T11:54:21.443Z,26.35
2019-03-21T11:55:01.949Z,26.34
2019-03-21T11:55:42.285Z,26.36
2019-03-21T11:56:22.742Z,26.41
2019-03-21T11:57:03.388Z,26.46
2019-03-21T11:57:43.779Z,26.35
2019-03-21T11:58:24.195Z,26.47
2019-03-21T11:59:04.743Z,26.5
2019-03-21T11:59:51.377Z,26.68
2019-03-21T12:00:25.623Z,26.91
2019-03-21T12:01:06.097Z,26.87
2019-03-21T12:01:46.865Z,26.69
2019-03-21T12:02:27.656Z,26.71
2019-03-21T12:03:07.663Z,26.83
2019-03-21T12:03:48.106Z,27.02
2019-03-21T12:04:28.771Z,27.08
2019-03-21T12:05:13.277Z,27.01
2019-03-21T12:05:53.694Z,26.75
2019-03-21T12:06:34.129Z,26.64
2019-03-21T12:07:14.552Z,26.71
2019-03-21T12:07:54.996Z,26.76
2019-03-21T12:08:35.390Z,26.56
2019-03-21T12:09:16.000Z,26.64
2019-03-21T12:09:56.331Z,26.64
2019-03-21T12:10:36.746Z,26.5
2019-03-21T12:11:17.160Z,26.36